sensor_id;sensor_type;location;lat;lon;timestamp;P1;durP1;ratioP1;P2;durP2;ratioP2
3054;SDS011;1537;52.018;8.542;2023-02-28T00:01:21;10.60;;;6.43;;
3054;SDS011;1537;52.018;8.542;2023-02-28T00:04:46;10.80;;;6.10;;
3054;SDS011;1537;52.018;8.542;2023-02-28T00:08:18;10.47;;;6.00;;
3054;SDS011;1537;52.018;8.542;2023-02-28T00:11:45;9.73;;;6.40;;
3054;SDS011;1537;52.018;8.542;2023-02-28T00:15:10;11.90;;;6.87;;
3054;SDS011;1537;52.018;8.542;2023-02-28T00:18:34;13.87;;;5.70;;
3054;SDS011;1537;52.018;8.542;2023-02-28T00:21:59;6.80;;;4.70;;
3054;SDS011;1537;52.018;8.542;2023-02-28T00:25:25;11.10;;;6.10;;
3054;SDS011;1537;52.018;8.542;2023-02-28T00:28:48;8.33;;;5.23;;
3054;SDS011;1537;52.018;8.542;2023-02-28T00:32:14;8.33;;;5.23;;
3054;SDS011;1537;52.018;8.542;2023-02-28T00:35:38;12.20;;;6.40;;
3054;SDS011;1537;52.018;8.542;2023-02-28T00:39:04;10.33;;;5.63;;
3054;SDS011;1537;52.018;8.542;2023-02-28T00:42:30;11.73;;;6.27;;
3054;SDS011;1537;52.018;8.542;2023-02-28T00:45:53;9.30;;;5.80;;
3054;SDS011;1537;52.018;8.542;2023-02-28T00:49:18;9.53;;;5.90;;
3054;SDS011;1537;52.018;8.542;2023-02-28T00:52:42;12.20;;;6.63;;
3054;SDS011;1537;52.018;8.542;2023-02-28T00:56:06;10.50;;;6.77;;
3054;SDS011;1537;52.018;8.542;2023-02-28T00:59:32;16.17;;;7.10;;
3054;SDS011;1537;52.018;8.542;2023-02-28T01:02:55;10.50;;;6.43;;
3054;SDS011;1537;52.018;8.542;2023-02-28T01:06:19;12.47;;;7.20;;
3054;SDS011;1537;52.018;8.542;2023-02-28T01:09:43;10.23;;;7.00;;
3054;SDS011;1537;52.018;8.542;2023-02-28T01:13:07;14.03;;;7.23;;
3054;SDS011;1537;52.018;8.542;2023-02-28T01:16:34;9.87;;;7.20;;
3054;SDS011;1537;52.018;8.542;2023-02-28T01:19:57;11.13;;;7.43;;
3054;SDS011;1537;52.018;8.542;2023-02-28T01:23:22;11.97;;;7.60;;
3054;SDS011;1537;52.018;8.542;2023-02-28T01:26:48;11.13;;;6.73;;
3054;SDS011;1537;52.018;8.542;2023-02-28T01:30:13;8.90;;;6.60;;
3054;SDS011;1537;52.018;8.542;2023-02-28T01:33:39;13.23;;;7.07;;
3054;SDS011;1537;52.018;8.542;2023-02-28T01:37:03;12.53;;;8.23;;
3054;SDS011;1537;52.018;8.542;2023-02-28T01:40:27;11.30;;;7.10;;
3054;SDS011;1537;52.018;8.542;2023-02-28T01:43:52;13.90;;;7.10;;
3054;SDS011;1537;52.018;8.542;2023-02-28T01:47:18;9.33;;;6.27;;
3054;SDS011;1537;52.018;8.542;2023-02-28T01:50:45;11.60;;;7.03;;
3054;SDS011;1537;52.018;8.542;2023-02-28T01:54:11;11.80;;;7.63;;
3054;SDS011;1537;52.018;8.542;2023-02-28T01:57:42;11.90;;;6.90;;
3054;SDS011;1537;52.018;8.542;2023-02-28T02:01:10;9.23;;;6.60;;
3054;SDS011;1537;52.018;8.542;2023-02-28T02:04:45;11.80;;;6.97;;
3054;SDS011;1537;52.018;8.542;2023-02-28T02:08:16;13.73;;;7.63;;
3054;SDS011;1537;52.018;8.542;2023-02-28T02:11:42;11.20;;;6.47;;
3054;SDS011;1537;52.018;8.542;2023-02-28T02:15:12;11.30;;;6.57;;
3054;SDS011;1537;52.018;8.542;2023-02-28T02:18:38;11.73;;;6.53;;
3054;SDS011;1537;52.018;8.542;2023-02-28T02:22:12;12.50;;;6.23;;
3054;SDS011;1537;52.018;8.542;2023-02-28T02:25:52;11.00;;;6.60;;
3054;SDS011;1537;52.018;8.542;2023-02-28T02:29:34;12.27;;;6.70;;
3054;SDS011;1537;52.018;8.542;2023-02-28T02:37:21;10.73;;;6.77;;
3054;SDS011;1537;52.018;8.542;2023-02-28T02:40:55;10.07;;;7.53;;
3054;SDS011;1537;52.018;8.542;2023-02-28T02:44:27;11.40;;;7.20;;
3054;SDS011;1537;52.018;8.542;2023-02-28T02:47:54;13.13;;;5.20;;
3054;SDS011;1537;52.018;8.542;2023-02-28T02:51:20;8.43;;;5.80;;
3054;SDS011;1537;52.018;8.542;2023-02-28T02:54:48;10.87;;;6.17;;
3054;SDS011;1537;52.018;8.542;2023-02-28T02:58:17;11.00;;;5.87;;
3054;SDS011;1537;52.018;8.542;2023-02-28T03:01:48;11.30;;;6.20;;
3054;SDS011;1537;52.018;8.542;2023-02-28T03:05:18;11.47;;;6.50;;
3054;SDS011;1537;52.018;8.542;2023-02-28T03:08:44;9.67;;;5.77;;
3054;SDS011;1537;52.018;8.542;2023-02-28T03:12:16;9.40;;;6.10;;
3054;SDS011;1537;52.018;8.542;2023-02-28T03:15:46;9.67;;;6.30;;
3054;SDS011;1537;52.018;8.542;2023-02-28T03:23:19;8.77;;;5.80;;
3054;SDS011;1537;52.018;8.542;2023-02-28T03:26:48;11.80;;;8.27;;
3054;SDS011;1537;52.018;8.542;2023-02-28T03:30:20;9.87;;;6.83;;
3054;SDS011;1537;52.018;8.542;2023-02-28T03:33:49;10.60;;;6.40;;
3054;SDS011;1537;52.018;8.542;2023-02-28T03:37:23;10.40;;;6.60;;
3054;SDS011;1537;52.018;8.542;2023-02-28T03:40:54;10.40;;;5.90;;
3054;SDS011;1537;52.018;8.542;2023-02-28T03:44:24;10.20;;;7.43;;
3054;SDS011;1537;52.018;8.542;2023-02-28T03:47:57;9.17;;;5.63;;
3054;SDS011;1537;52.018;8.542;2023-02-28T03:51:25;10.17;;;5.63;;
3054;SDS011;1537;52.018;8.542;2023-02-28T03:54:52;14.10;;;7.23;;
3054;SDS011;1537;52.018;8.542;2023-02-28T03:58:27;9.70;;;6.10;;
3054;SDS011;1537;52.018;8.542;2023-02-28T04:01:58;10.60;;;6.30;;
3054;SDS011;1537;52.018;8.542;2023-02-28T04:05:26;9.60;;;6.00;;
3054;SDS011;1537;52.018;8.542;2023-02-28T04:08:51;11.53;;;7.00;;
3054;SDS011;1537;52.018;8.542;2023-02-28T04:12:17;9.60;;;5.70;;
3054;SDS011;1537;52.018;8.542;2023-02-28T04:15:41;10.13;;;6.57;;
3054;SDS011;1537;52.018;8.542;2023-02-28T04:19:09;13.77;;;6.20;;
3054;SDS011;1537;52.018;8.542;2023-02-28T04:22:39;8.43;;;5.83;;
3054;SDS011;1537;52.018;8.542;2023-02-28T04:26:02;10.40;;;6.80;;
3054;SDS011;1537;52.018;8.542;2023-02-28T04:29:28;10.83;;;6.80;;
3054;SDS011;1537;52.018;8.542;2023-02-28T04:32:54;10.50;;;6.93;;
3054;SDS011;1537;52.018;8.542;2023-02-28T04:36:18;10.37;;;7.10;;
3054;SDS011;1537;52.018;8.542;2023-02-28T04:39:46;24.13;;;8.10;;
3054;SDS011;1537;52.018;8.542;2023-02-28T04:43:10;10.07;;;6.97;;
3054;SDS011;1537;52.018;8.542;2023-02-28T04:46:34;9.20;;;5.90;;
3054;SDS011;1537;52.018;8.542;2023-02-28T04:49:58;13.33;;;6.67;;
3054;SDS011;1537;52.018;8.542;2023-02-28T04:53:22;9.50;;;6.53;;
3054;SDS011;1537;52.018;8.542;2023-02-28T04:56:48;11.60;;;6.17;;
3054;SDS011;1537;52.018;8.542;2023-02-28T05:00:13;12.30;;;6.20;;
3054;SDS011;1537;52.018;8.542;2023-02-28T05:03:39;12.07;;;7.00;;
3054;SDS011;1537;52.018;8.542;2023-02-28T05:07:03;11.80;;;6.87;;
3054;SDS011;1537;52.018;8.542;2023-02-28T05:10:27;9.93;;;6.20;;
3054;SDS011;1537;52.018;8.542;2023-02-28T05:13:55;10.87;;;6.73;;
3054;SDS011;1537;52.018;8.542;2023-02-28T05:17:19;13.20;;;7.03;;
3054;SDS011;1537;52.018;8.542;2023-02-28T05:20:45;10.63;;;7.33;;
3054;SDS011;1537;52.018;8.542;2023-02-28T05:24:10;9.30;;;5.77;;
3054;SDS011;1537;52.018;8.542;2023-02-28T05:27:37;16.83;;;7.50;;
3054;SDS011;1537;52.018;8.542;2023-02-28T05:31:03;16.37;;;6.70;;
3054;SDS011;1537;52.018;8.542;2023-02-28T05:34:27;10.50;;;6.67;;
3054;SDS011;1537;52.018;8.542;2023-02-28T05:37:51;11.50;;;5.93;;
3054;SDS011;1537;52.018;8.542;2023-02-28T05:41:16;10.50;;;7.93;;
3054;SDS011;1537;52.018;8.542;2023-02-28T05:44:42;10.83;;;7.63;;
3054;SDS011;1537;52.018;8.542;2023-02-28T05:48:09;16.03;;;7.30;;
3054;SDS011;1537;52.018;8.542;2023-02-28T05:51:33;12.80;;;7.10;;
3054;SDS011;1537;52.018;8.542;2023-02-28T05:54:59;13.23;;;8.03;;
3054;SDS011;1537;52.018;8.542;2023-02-28T05:58:23;11.13;;;7.50;;
3054;SDS011;1537;52.018;8.542;2023-02-28T06:01:51;15.20;;;8.67;;
3054;SDS011;1537;52.018;8.542;2023-02-28T06:05:17;11.30;;;7.80;;
3054;SDS011;1537;52.018;8.542;2023-02-28T06:08:42;17.40;;;7.57;;
3054;SDS011;1537;52.018;8.542;2023-02-28T06:12:07;14.00;;;8.43;;
3054;SDS011;1537;52.018;8.542;2023-02-28T06:15:35;14.50;;;8.37;;
3054;SDS011;1537;52.018;8.542;2023-02-28T06:18:59;18.90;;;7.90;;
3054;SDS011;1537;52.018;8.542;2023-02-28T06:22:27;10.20;;;7.70;;
3054;SDS011;1537;52.018;8.542;2023-02-28T06:25:50;16.00;;;8.63;;
3054;SDS011;1537;52.018;8.542;2023-02-28T06:29:16;16.17;;;8.43;;
3054;SDS011;1537;52.018;8.542;2023-02-28T06:32:41;12.63;;;8.33;;
3054;SDS011;1537;52.018;8.542;2023-02-28T06:36:05;18.93;;;6.83;;
3054;SDS011;1537;52.018;8.542;2023-02-28T06:39:31;18.47;;;7.73;;
3054;SDS011;1537;52.018;8.542;2023-02-28T06:42:55;11.47;;;7.47;;
3054;SDS011;1537;52.018;8.542;2023-02-28T06:46:20;10.27;;;6.07;;
3054;SDS011;1537;52.018;8.542;2023-02-28T06:49:44;9.30;;;7.10;;
3054;SDS011;1537;52.018;8.542;2023-02-28T06:53:08;14.53;;;6.90;;
3054;SDS011;1537;52.018;8.542;2023-02-28T06:56:33;15.37;;;9.33;;
3054;SDS011;1537;52.018;8.542;2023-02-28T06:59:57;9.30;;;6.63;;
3054;SDS011;1537;52.018;8.542;2023-02-28T07:03:22;11.83;;;7.50;;
3054;SDS011;1537;52.018;8.542;2023-02-28T07:06:47;13.70;;;9.40;;
3054;SDS011;1537;52.018;8.542;2023-02-28T07:10:12;13.37;;;8.30;;
3054;SDS011;1537;52.018;8.542;2023-02-28T07:13:43;15.07;;;7.70;;
3054;SDS011;1537;52.018;8.542;2023-02-28T07:17:10;14.27;;;9.00;;
3054;SDS011;1537;52.018;8.542;2023-02-28T07:20:33;15.47;;;8.10;;
3054;SDS011;1537;52.018;8.542;2023-02-28T07:23:59;13.50;;;8.93;;
3054;SDS011;1537;52.018;8.542;2023-02-28T07:27:23;12.23;;;8.00;;
3054;SDS011;1537;52.018;8.542;2023-02-28T07:30:48;13.53;;;9.20;;
3054;SDS011;1537;52.018;8.542;2023-02-28T07:34:12;13.50;;;7.67;;
3054;SDS011;1537;52.018;8.542;2023-02-28T07:37:36;12.13;;;6.60;;
3054;SDS011;1537;52.018;8.542;2023-02-28T07:40:59;10.10;;;6.13;;
3054;SDS011;1537;52.018;8.542;2023-02-28T07:44:26;10.17;;;6.20;;
3054;SDS011;1537;52.018;8.542;2023-02-28T07:47:51;11.40;;;6.53;;
3054;SDS011;1537;52.018;8.542;2023-02-28T07:51:14;10.80;;;6.37;;
3054;SDS011;1537;52.018;8.542;2023-02-28T07:54:38;11.27;;;6.53;;
3054;SDS011;1537;52.018;8.542;2023-02-28T07:58:02;11.70;;;7.13;;
3054;SDS011;1537;52.018;8.542;2023-02-28T08:01:25;12.13;;;8.47;;
3054;SDS011;1537;52.018;8.542;2023-02-28T08:04:53;17.13;;;8.63;;
3054;SDS011;1537;52.018;8.542;2023-02-28T08:08:16;12.07;;;8.63;;
3054;SDS011;1537;52.018;8.542;2023-02-28T08:11:40;13.43;;;7.67;;
3054;SDS011;1537;52.018;8.542;2023-02-28T08:15:04;9.40;;;5.20;;
3054;SDS011;1537;52.018;8.542;2023-02-28T08:18:28;7.87;;;5.47;;
3054;SDS011;1537;52.018;8.542;2023-02-28T08:21:53;11.93;;;6.03;;
3054;SDS011;1537;52.018;8.542;2023-02-28T08:25:17;14.70;;;6.87;;
3054;SDS011;1537;52.018;8.542;2023-02-28T08:28:41;11.27;;;6.90;;
3054;SDS011;1537;52.018;8.542;2023-02-28T08:32:06;10.43;;;5.70;;
3054;SDS011;1537;52.018;8.542;2023-02-28T08:35:51;8.17;;;5.13;;
3054;SDS011;1537;52.018;8.542;2023-02-28T08:39:17;13.30;;;6.10;;
3054;SDS011;1537;52.018;8.542;2023-02-28T08:42:41;14.53;;;5.50;;
3054;SDS011;1537;52.018;8.542;2023-02-28T08:46:05;13.33;;;5.67;;
3054;SDS011;1537;52.018;8.542;2023-02-28T08:49:29;14.63;;;5.60;;
3054;SDS011;1537;52.018;8.542;2023-02-28T08:52:53;9.87;;;5.97;;
3054;SDS011;1537;52.018;8.542;2023-02-28T08:56:18;7.80;;;5.30;;
3054;SDS011;1537;52.018;8.542;2023-02-28T08:59:42;9.00;;;5.23;;
3054;SDS011;1537;52.018;8.542;2023-02-28T09:03:06;7.57;;;4.40;;
3054;SDS011;1537;52.018;8.542;2023-02-28T09:06:30;7.80;;;4.10;;
3054;SDS011;1537;52.018;8.542;2023-02-28T09:09:55;6.93;;;4.33;;
3054;SDS011;1537;52.018;8.542;2023-02-28T09:13:21;7.73;;;5.00;;
3054;SDS011;1537;52.018;8.542;2023-02-28T09:16:44;7.63;;;4.60;;
3054;SDS011;1537;52.018;8.542;2023-02-28T09:20:08;7.60;;;4.70;;
3054;SDS011;1537;52.018;8.542;2023-02-28T09:23:33;7.10;;;4.40;;
3054;SDS011;1537;52.018;8.542;2023-02-28T09:26:59;9.63;;;4.40;;
3054;SDS011;1537;52.018;8.542;2023-02-28T09:30:28;8.40;;;4.80;;
3054;SDS011;1537;52.018;8.542;2023-02-28T09:33:52;8.87;;;4.57;;
3054;SDS011;1537;52.018;8.542;2023-02-28T09:37:17;7.33;;;3.77;;
3054;SDS011;1537;52.018;8.542;2023-02-28T09:40:45;5.87;;;3.63;;
3054;SDS011;1537;52.018;8.542;2023-02-28T09:44:12;9.13;;;4.40;;
3054;SDS011;1537;52.018;8.542;2023-02-28T09:47:42;7.00;;;4.30;;
3054;SDS011;1537;52.018;8.542;2023-02-28T09:51:12;8.40;;;4.87;;
3054;SDS011;1537;52.018;8.542;2023-02-28T09:54:50;9.80;;;4.47;;
3054;SDS011;1537;52.018;8.542;2023-02-28T09:58:15;11.80;;;4.83;;
3054;SDS011;1537;52.018;8.542;2023-02-28T10:01:45;6.70;;;3.83;;
3054;SDS011;1537;52.018;8.542;2023-02-28T10:05:18;7.37;;;3.63;;
3054;SDS011;1537;52.018;8.542;2023-02-28T10:08:47;8.60;;;3.57;;
3054;SDS011;1537;52.018;8.542;2023-02-28T10:12:19;5.10;;;3.13;;
3054;SDS011;1537;52.018;8.542;2023-02-28T10:15:43;6.20;;;2.90;;
3054;SDS011;1537;52.018;8.542;2023-02-28T10:19:11;5.57;;;3.43;;
3054;SDS011;1537;52.018;8.542;2023-02-28T10:22:40;6.20;;;3.53;;
3054;SDS011;1537;52.018;8.542;2023-02-28T10:26:13;10.97;;;3.60;;
3054;SDS011;1537;52.018;8.542;2023-02-28T10:29:40;6.07;;;2.97;;
3054;SDS011;1537;52.018;8.542;2023-02-28T10:33:05;5.77;;;3.27;;
3054;SDS011;1537;52.018;8.542;2023-02-28T10:36:36;5.07;;;2.50;;
3054;SDS011;1537;52.018;8.542;2023-02-28T10:40:01;7.20;;;3.67;;
3054;SDS011;1537;52.018;8.542;2023-02-28T10:43:27;6.40;;;2.40;;
3054;SDS011;1537;52.018;8.542;2023-02-28T10:46:51;4.93;;;2.47;;
3054;SDS011;1537;52.018;8.542;2023-02-28T10:50:35;4.53;;;2.20;;
3054;SDS011;1537;52.018;8.542;2023-02-28T10:54:02;3.90;;;1.80;;
3054;SDS011;1537;52.018;8.542;2023-02-28T10:57:28;5.90;;;2.00;;
3054;SDS011;1537;52.018;8.542;2023-02-28T11:00:54;4.70;;;2.10;;
3054;SDS011;1537;52.018;8.542;2023-02-28T11:04:19;6.53;;;2.10;;
3054;SDS011;1537;52.018;8.542;2023-02-28T11:07:55;4.87;;;2.07;;
3054;SDS011;1537;52.018;8.542;2023-02-28T11:11:22;5.50;;;2.80;;
3054;SDS011;1537;52.018;8.542;2023-02-28T11:14:54;4.60;;;2.20;;
3054;SDS011;1537;52.018;8.542;2023-02-28T11:18:22;4.23;;;2.13;;
3054;SDS011;1537;52.018;8.542;2023-02-28T11:21:51;4.40;;;2.03;;
3054;SDS011;1537;52.018;8.542;2023-02-28T11:25:19;4.30;;;2.43;;
3054;SDS011;1537;52.018;8.542;2023-02-28T11:28:45;4.93;;;2.40;;
3054;SDS011;1537;52.018;8.542;2023-02-28T11:32:16;4.83;;;2.97;;
3054;SDS011;1537;52.018;8.542;2023-02-28T11:35:42;6.00;;;2.47;;
3054;SDS011;1537;52.018;8.542;2023-02-28T11:39:09;4.33;;;2.40;;
3054;SDS011;1537;52.018;8.542;2023-02-28T11:42:41;5.60;;;2.87;;
3054;SDS011;1537;52.018;8.542;2023-02-28T11:46:20;7.20;;;2.63;;
3054;SDS011;1537;52.018;8.542;2023-02-28T11:49:59;5.50;;;2.60;;
3054;SDS011;1537;52.018;8.542;2023-02-28T11:53:49;4.27;;;2.20;;
3054;SDS011;1537;52.018;8.542;2023-02-28T11:57:27;4.07;;;1.90;;
3054;SDS011;1537;52.018;8.542;2023-02-28T12:01:03;7.20;;;2.50;;
3054;SDS011;1537;52.018;8.542;2023-02-28T12:04:38;5.60;;;2.77;;
3054;SDS011;1537;52.018;8.542;2023-02-28T12:08:19;6.10;;;2.87;;
3054;SDS011;1537;52.018;8.542;2023-02-28T12:11:54;5.73;;;3.50;;
3054;SDS011;1537;52.018;8.542;2023-02-28T12:15:32;4.77;;;2.67;;
3054;SDS011;1537;52.018;8.542;2023-02-28T12:19:13;5.73;;;3.00;;
3054;SDS011;1537;52.018;8.542;2023-02-28T12:22:43;4.43;;;2.17;;
3054;SDS011;1537;52.018;8.542;2023-02-28T12:26:17;5.67;;;2.73;;
3054;SDS011;1537;52.018;8.542;2023-02-28T12:29:47;6.53;;;2.60;;
3054;SDS011;1537;52.018;8.542;2023-02-28T12:33:16;7.33;;;4.60;;
3054;SDS011;1537;52.018;8.542;2023-02-28T12:36:44;5.30;;;2.73;;
3054;SDS011;1537;52.018;8.542;2023-02-28T12:40:11;6.57;;;2.40;;
3054;SDS011;1537;52.018;8.542;2023-02-28T12:43:40;5.03;;;2.80;;
3054;SDS011;1537;52.018;8.542;2023-02-28T12:47:08;4.80;;;2.87;;
3054;SDS011;1537;52.018;8.542;2023-02-28T12:50:36;11.50;;;2.70;;
3054;SDS011;1537;52.018;8.542;2023-02-28T12:54:04;5.10;;;2.60;;
3054;SDS011;1537;52.018;8.542;2023-02-28T12:57:34;6.33;;;3.37;;
3054;SDS011;1537;52.018;8.542;2023-02-28T13:01:11;5.80;;;4.63;;
3054;SDS011;1537;52.018;8.542;2023-02-28T13:04:56;5.77;;;3.50;;
3054;SDS011;1537;52.018;8.542;2023-02-28T13:08:47;4.53;;;2.50;;
3054;SDS011;1537;52.018;8.542;2023-02-28T13:12:36;6.23;;;3.87;;
3054;SDS011;1537;52.018;8.542;2023-02-28T13:16:12;5.33;;;2.70;;
3054;SDS011;1537;52.018;8.542;2023-02-28T13:19:36;6.23;;;4.33;;
3054;SDS011;1537;52.018;8.542;2023-02-28T13:23:02;7.47;;;3.40;;
3054;SDS011;1537;52.018;8.542;2023-02-28T13:34:26;6.50;;;3.27;;
3054;SDS011;1537;52.018;8.542;2023-02-28T13:37:49;5.87;;;3.40;;
3054;SDS011;1537;52.018;8.542;2023-02-28T13:45:22;6.50;;;2.50;;
3054;SDS011;1537;52.018;8.542;2023-02-28T13:48:47;5.60;;;4.60;;
3054;SDS011;1537;52.018;8.542;2023-02-28T13:52:14;6.87;;;3.67;;
3054;SDS011;1537;52.018;8.542;2023-02-28T13:55:42;5.77;;;3.47;;
3054;SDS011;1537;52.018;8.542;2023-02-28T13:59:14;5.17;;;4.17;;
3054;SDS011;1537;52.018;8.542;2023-02-28T14:02:48;7.20;;;4.60;;
3054;SDS011;1537;52.018;8.542;2023-02-28T14:06:30;6.57;;;2.80;;
3054;SDS011;1537;52.018;8.542;2023-02-28T14:09:58;5.63;;;3.80;;
3054;SDS011;1537;52.018;8.542;2023-02-28T14:13:37;6.53;;;2.97;;
3054;SDS011;1537;52.018;8.542;2023-02-28T14:17:07;5.60;;;3.03;;
3054;SDS011;1537;52.018;8.542;2023-02-28T14:20:36;11.77;;;4.03;;
3054;SDS011;1537;52.018;8.542;2023-02-28T14:24:16;5.53;;;4.70;;
3054;SDS011;1537;52.018;8.542;2023-02-28T14:27:53;6.70;;;3.77;;
3054;SDS011;1537;52.018;8.542;2023-02-28T14:31:28;6.70;;;4.53;;
3054;SDS011;1537;52.018;8.542;2023-02-28T14:34:56;6.10;;;5.37;;
3054;SDS011;1537;52.018;8.542;2023-02-28T14:38:27;5.40;;;3.30;;
3054;SDS011;1537;52.018;8.542;2023-02-28T14:41:53;7.60;;;3.27;;
3054;SDS011;1537;52.018;8.542;2023-02-28T14:45:19;5.20;;;3.13;;
3054;SDS011;1537;52.018;8.542;2023-02-28T14:48:44;7.60;;;3.90;;
3054;SDS011;1537;52.018;8.542;2023-02-28T14:52:13;11.43;;;4.77;;
3054;SDS011;1537;52.018;8.542;2023-02-28T14:55:43;7.93;;;5.60;;
3054;SDS011;1537;52.018;8.542;2023-02-28T14:59:21;6.30;;;5.70;;
3054;SDS011;1537;52.018;8.542;2023-02-28T15:02:49;6.10;;;3.30;;
3054;SDS011;1537;52.018;8.542;2023-02-28T15:06:15;5.40;;;3.60;;
3054;SDS011;1537;52.018;8.542;2023-02-28T15:09:40;5.33;;;3.17;;
3054;SDS011;1537;52.018;8.542;2023-02-28T15:13:05;5.20;;;2.70;;
3054;SDS011;1537;52.018;8.542;2023-02-28T15:16:31;8.60;;;3.23;;
3054;SDS011;1537;52.018;8.542;2023-02-28T15:19:59;4.67;;;2.70;;
3054;SDS011;1537;52.018;8.542;2023-02-28T15:23:23;7.90;;;3.87;;
3054;SDS011;1537;52.018;8.542;2023-02-28T15:26:48;9.07;;;3.63;;
3054;SDS011;1537;52.018;8.542;2023-02-28T15:30:16;6.70;;;3.97;;
3054;SDS011;1537;52.018;8.542;2023-02-28T15:33:47;6.83;;;3.30;;
3054;SDS011;1537;52.018;8.542;2023-02-28T15:37:37;7.53;;;2.90;;
3054;SDS011;1537;52.018;8.542;2023-02-28T15:41:02;10.20;;;3.30;;
3054;SDS011;1537;52.018;8.542;2023-02-28T15:44:33;8.80;;;4.10;;
3054;SDS011;1537;52.018;8.542;2023-02-28T15:47:59;5.67;;;2.80;;
3054;SDS011;1537;52.018;8.542;2023-02-28T15:51:36;10.30;;;4.20;;
3054;SDS011;1537;52.018;8.542;2023-02-28T15:55:08;6.00;;;4.03;;
3054;SDS011;1537;52.018;8.542;2023-02-28T15:58:34;6.17;;;3.03;;
3054;SDS011;1537;52.018;8.542;2023-02-28T16:02:13;7.37;;;4.33;;
3054;SDS011;1537;52.018;8.542;2023-02-28T16:05:39;7.60;;;4.37;;
3054;SDS011;1537;52.018;8.542;2023-02-28T16:09:04;6.57;;;3.37;;
3054;SDS011;1537;52.018;8.542;2023-02-28T16:12:32;6.00;;;3.23;;
3054;SDS011;1537;52.018;8.542;2023-02-28T16:15:57;6.70;;;4.17;;
3054;SDS011;1537;52.018;8.542;2023-02-28T16:19:22;7.13;;;4.60;;
3054;SDS011;1537;52.018;8.542;2023-02-28T16:22:46;5.57;;;3.97;;
3054;SDS011;1537;52.018;8.542;2023-02-28T16:26:12;6.50;;;3.90;;
3054;SDS011;1537;52.018;8.542;2023-02-28T16:29:43;6.20;;;4.07;;
3054;SDS011;1537;52.018;8.542;2023-02-28T16:33:08;5.90;;;4.10;;
3054;SDS011;1537;52.018;8.542;2023-02-28T16:36:32;6.80;;;3.87;;
3054;SDS011;1537;52.018;8.542;2023-02-28T16:39:55;7.40;;;2.83;;
3054;SDS011;1537;52.018;8.542;2023-02-28T16:43:20;6.57;;;3.53;;
3054;SDS011;1537;52.018;8.542;2023-02-28T16:46:48;6.53;;;4.33;;
3054;SDS011;1537;52.018;8.542;2023-02-28T16:50:12;9.30;;;3.73;;
3054;SDS011;1537;52.018;8.542;2023-02-28T16:53:38;6.03;;;4.10;;
3054;SDS011;1537;52.018;8.542;2023-02-28T16:57:02;5.43;;;3.17;;
3054;SDS011;1537;52.018;8.542;2023-02-28T17:00:28;6.10;;;3.80;;
3054;SDS011;1537;52.018;8.542;2023-02-28T17:03:55;7.30;;;4.03;;
3054;SDS011;1537;52.018;8.542;2023-02-28T17:07:19;7.03;;;4.00;;
3054;SDS011;1537;52.018;8.542;2023-02-28T17:10:43;5.47;;;3.47;;
3054;SDS011;1537;52.018;8.542;2023-02-28T17:14:07;8.17;;;4.27;;
3054;SDS011;1537;52.018;8.542;2023-02-28T17:17:30;7.77;;;4.73;;
3054;SDS011;1537;52.018;8.542;2023-02-28T17:20:55;9.37;;;4.00;;
3054;SDS011;1537;52.018;8.542;2023-02-28T17:24:19;6.93;;;4.73;;
3054;SDS011;1537;52.018;8.542;2023-02-28T17:27:52;9.33;;;4.07;;
3054;SDS011;1537;52.018;8.542;2023-02-28T17:31:16;8.70;;;4.33;;
3054;SDS011;1537;52.018;8.542;2023-02-28T17:34:40;8.93;;;4.80;;
3054;SDS011;1537;52.018;8.542;2023-02-28T17:38:05;8.53;;;5.07;;
3054;SDS011;1537;52.018;8.542;2023-02-28T17:41:36;6.20;;;4.57;;
3054;SDS011;1537;52.018;8.542;2023-02-28T17:45:00;7.97;;;4.50;;
3054;SDS011;1537;52.018;8.542;2023-02-28T17:48:24;11.73;;;6.27;;
3054;SDS011;1537;52.018;8.542;2023-02-28T17:51:48;7.90;;;5.53;;
3054;SDS011;1537;52.018;8.542;2023-02-28T17:55:13;6.53;;;4.57;;
3054;SDS011;1537;52.018;8.542;2023-02-28T17:58:37;7.00;;;5.17;;
3054;SDS011;1537;52.018;8.542;2023-02-28T18:02:00;10.13;;;5.53;;
3054;SDS011;1537;52.018;8.542;2023-02-28T18:05:25;12.13;;;5.70;;
3054;SDS011;1537;52.018;8.542;2023-02-28T18:08:49;9.97;;;6.57;;
3054;SDS011;1537;52.018;8.542;2023-02-28T18:12:15;12.23;;;7.10;;
3054;SDS011;1537;52.018;8.542;2023-02-28T18:15:39;16.73;;;7.20;;
3054;SDS011;1537;52.018;8.542;2023-02-28T18:19:02;10.57;;;7.13;;
3054;SDS011;1537;52.018;8.542;2023-02-28T18:22:26;10.10;;;6.83;;
3054;SDS011;1537;52.018;8.542;2023-02-28T18:25:50;8.83;;;5.70;;
3054;SDS011;1537;52.018;8.542;2023-02-28T18:29:18;10.70;;;6.33;;
3054;SDS011;1537;52.018;8.542;2023-02-28T18:32:45;8.33;;;6.33;;
3054;SDS011;1537;52.018;8.542;2023-02-28T18:36:09;11.97;;;6.90;;
3054;SDS011;1537;52.018;8.542;2023-02-28T18:39:33;10.93;;;7.27;;
3054;SDS011;1537;52.018;8.542;2023-02-28T18:42:56;10.47;;;6.87;;
3054;SDS011;1537;52.018;8.542;2023-02-28T18:46:22;10.90;;;6.77;;
3054;SDS011;1537;52.018;8.542;2023-02-28T18:49:46;8.43;;;6.40;;
3054;SDS011;1537;52.018;8.542;2023-02-28T18:53:09;12.80;;;6.90;;
3054;SDS011;1537;52.018;8.542;2023-02-28T18:56:33;12.37;;;6.80;;
3054;SDS011;1537;52.018;8.542;2023-02-28T18:59:56;10.60;;;6.10;;
3054;SDS011;1537;52.018;8.542;2023-02-28T19:03:21;15.33;;;8.13;;
3054;SDS011;1537;52.018;8.542;2023-02-28T19:06:45;13.80;;;7.77;;
3054;SDS011;1537;52.018;8.542;2023-02-28T19:10:09;11.63;;;6.80;;
3054;SDS011;1537;52.018;8.542;2023-02-28T19:13:34;14.50;;;7.50;;
3054;SDS011;1537;52.018;8.542;2023-02-28T19:16:58;10.73;;;7.27;;
3054;SDS011;1537;52.018;8.542;2023-02-28T19:20:23;11.83;;;8.83;;
3054;SDS011;1537;52.018;8.542;2023-02-28T19:23:47;15.27;;;7.93;;
3054;SDS011;1537;52.018;8.542;2023-02-28T19:27:10;12.17;;;8.10;;
3054;SDS011;1537;52.018;8.542;2023-02-28T19:30:34;10.40;;;6.97;;
3054;SDS011;1537;52.018;8.542;2023-02-28T19:33:58;9.07;;;6.43;;
3054;SDS011;1537;52.018;8.542;2023-02-28T19:37:23;11.10;;;6.70;;
3054;SDS011;1537;52.018;8.542;2023-02-28T19:40:47;19.83;;;8.03;;
3054;SDS011;1537;52.018;8.542;2023-02-28T19:44:10;9.37;;;6.40;;
3054;SDS011;1537;52.018;8.542;2023-02-28T19:47:34;11.87;;;6.00;;
3054;SDS011;1537;52.018;8.542;2023-02-28T19:50:59;12.30;;;7.37;;
3054;SDS011;1537;52.018;8.542;2023-02-28T19:54:26;12.80;;;8.20;;
3054;SDS011;1537;52.018;8.542;2023-02-28T19:57:50;11.33;;;8.80;;
3054;SDS011;1537;52.018;8.542;2023-02-28T20:01:14;11.37;;;8.30;;
3054;SDS011;1537;52.018;8.542;2023-02-28T20:04:40;16.40;;;8.90;;
3054;SDS011;1537;52.018;8.542;2023-02-28T20:08:04;19.83;;;9.07;;
3054;SDS011;1537;52.018;8.542;2023-02-28T20:11:30;15.63;;;8.47;;
3054;SDS011;1537;52.018;8.542;2023-02-28T20:14:53;12.90;;;9.70;;
3054;SDS011;1537;52.018;8.542;2023-02-28T20:18:17;16.50;;;8.13;;
3054;SDS011;1537;52.018;8.542;2023-02-28T20:21:41;14.73;;;8.10;;
3054;SDS011;1537;52.018;8.542;2023-02-28T20:25:05;25.70;;;10.60;;
3054;SDS011;1537;52.018;8.542;2023-02-28T20:28:33;14.37;;;8.37;;
3054;SDS011;1537;52.018;8.542;2023-02-28T20:31:57;11.30;;;9.03;;
3054;SDS011;1537;52.018;8.542;2023-02-28T20:35:20;12.67;;;9.40;;
3054;SDS011;1537;52.018;8.542;2023-02-28T20:38:44;10.80;;;8.90;;
3054;SDS011;1537;52.018;8.542;2023-02-28T20:42:09;13.53;;;9.27;;
3054;SDS011;1537;52.018;8.542;2023-02-28T20:45:36;12.60;;;9.87;;
3054;SDS011;1537;52.018;8.542;2023-02-28T20:49:01;15.53;;;10.10;;
3054;SDS011;1537;52.018;8.542;2023-02-28T20:52:24;17.37;;;10.13;;
3054;SDS011;1537;52.018;8.542;2023-02-28T20:55:54;16.00;;;10.10;;
3054;SDS011;1537;52.018;8.542;2023-02-28T20:59:18;15.10;;;9.87;;
3054;SDS011;1537;52.018;8.542;2023-02-28T21:02:44;12.57;;;9.07;;
3054;SDS011;1537;52.018;8.542;2023-02-28T21:06:09;14.83;;;10.40;;
3054;SDS011;1537;52.018;8.542;2023-02-28T21:09:32;12.70;;;9.80;;
3054;SDS011;1537;52.018;8.542;2023-02-28T21:12:56;13.67;;;10.70;;
3054;SDS011;1537;52.018;8.542;2023-02-28T21:16:20;13.70;;;9.30;;
3054;SDS011;1537;52.018;8.542;2023-02-28T21:19:47;20.30;;;10.00;;
3054;SDS011;1537;52.018;8.542;2023-02-28T21:23:11;17.20;;;11.57;;
3054;SDS011;1537;52.018;8.542;2023-02-28T21:26:34;16.20;;;9.40;;
3054;SDS011;1537;52.018;8.542;2023-02-28T21:29:58;16.40;;;10.53;;
3054;SDS011;1537;52.018;8.542;2023-02-28T21:33:22;15.33;;;10.00;;
3054;SDS011;1537;52.018;8.542;2023-02-28T21:36:47;20.27;;;13.40;;